• Join FlightAware (Why Join?)
  • Login
  • US Flag 
12:23AM EDT


 

Airport Tracker/Info


-or-


 

Live Flight TrackerFlight Track Log ✈ N433JM ✈ 30-Jul-2014 ✈ KJYO - 27K

Flight Track Log - Related Links

Times and Time Zones

All times are in EDT time to prevent confusion due to time zone crossing. See the N433JM flight status page for this flight to view local times or setup timezone preferences in your user account.

Time Position Orientation Groundspeed Altitude Reporting Facility
EDT Latitude Longitude Course Direction KTS MPH feet Rate Location/Type
04:30PM 39.1167 -77.6167 322° Northwest 196 226 2,700  Level Potomac TRACON
04:31PM 39.0833 -77.6667 229° Southwest 181 208 4,000 1,020 Climbing Potomac TRACON
04:32PM 39.0500 -77.7167 229° Southwest 201 231 4,800 1,080 Climbing Potomac TRACON
04:33PM 38.9833 -77.7333 191° South 199 229 6,200 1,320 Climbing Potomac TRACON
04:33PM 38.9669 -77.7514 221° Southwest 205 236 6,900 840 Climbing Washington Center
04:34PM 38.9061 -77.7764 198° South 238 274 7,500 1,320 Climbing Washington Center
04:35PM 38.8494 -77.7933 193° South 231 266 9,600 1,560 Climbing Washington Center
04:36PM 38.8214 -77.8406 233° Southwest 182 209 10,700 1,680 Climbing Washington Center
04:37PM 38.8225 -77.9019 271° West 177 204 13,100 1,980 Climbing Washington Center
04:38PM 38.8275 -77.9581 277° West 166 191 14,700 1,680 Climbing Washington Center
04:39PM 38.8369 -78.0169 282° West 160 184 16,500 1,680 Climbing Washington Center
04:40PM 38.8400 -78.0731 274° West 160 184 18,100 1,500 Climbing Washington Center
04:41PM 38.8492 -78.1319 281° West 160 184 19,600 1,440 Climbing Washington Center
04:42PM 38.8539 -78.1961 275° West 165 190 21,000 1,320 Climbing Washington Center
04:43PM 38.8464 -78.2544 261° West 171 197 22,300 1,200 Climbing Washington Center
04:44PM 38.8408 -78.3181 264° West 176 203 23,500 1,200 Climbing Washington Center
04:45PM 38.8331 -78.3819 261° West 176 203 24,700 1,080 Climbing Washington Center
04:46PM 38.8233 -78.4481 259° West 181 208 25,700 900 Climbing Washington Center
04:47PM 38.8175 -78.5144 264° West 181 208 26,600 780 Climbing Washington Center
04:48PM 38.8075 -78.5806 259° West 181 208 27,300 660 Climbing Washington Center
04:49PM 38.7975 -78.6494 259° West 191 220 28,000 300 Climbing Washington Center
04:50PM 38.7892 -78.7292 262° West 204 235 28,000  Level Washington Center
04:51PM 38.7786 -78.8058 260° West 220 253 28,000  Level Washington Center
04:52PM 38.7681 -78.8906 261° West 234 269 28,000  Level Washington Center
04:53PM 38.7575 -78.9728 261° West 239 275 28,000  Level Washington Center
04:54PM 38.7444 -79.0600 259° West 239 275 28,000  Level Washington Center
04:55PM 38.7339 -79.1444 261° West 244 281 28,000  Level Washington Center
04:56PM 38.7225 -79.2453 262° West 249 287 28,000  Level Washington Center
04:57PM 38.7114 -79.3297 260° West 254 292 28,000  Level Washington Center
04:58PM 38.6983 -79.4169 259° West 254 292 28,000  Level Washington Center
04:59PM 38.6872 -79.4989 260° West 254 292 28,000  Level Washington Center
05:00PM 38.6761 -79.5858 261° West 254 292 28,000  Level Washington Center
05:01PM 38.6647 -79.6731 261° West 254 292 28,000  Level Washington Center
05:02PM 38.6536 -79.7575 260° West 254 292 28,000  Level Washington Center
05:03PM 38.6403 -79.8419 259° West 254 292 28,000  Level Washington Center
05:04PM 38.6286 -79.9289 260° West 254 292 28,000  Level Washington Center
05:05PM 38.6153 -80.0131 259° West 254 292 28,000  Level Washington Center
05:06PM 38.6017 -80.0972 258° West 254 292 28,000  Level Washington Center
05:09PM 38.5725 -80.2906 259° West 243 280 28,000  Level Indianapolis Center
05:10PM 38.5606 -80.3753 260° West 242 278 28,000  Level Indianapolis Center
05:11PM 38.5481 -80.4631 260° West 242 278 28,000  Level Indianapolis Center
05:12PM 38.5361 -80.5475 260° West 242 278 28,000  Level Indianapolis Center
05:13PM 38.5239 -80.6303 259° West 241 277 28,000  Level Indianapolis Center
05:14PM 38.5117 -80.7147 260° West 241 277 28,000  Level Indianapolis Center
05:15PM 38.4958 -80.8144 259° West 241 277 28,000  Level Indianapolis Center
05:16PM 38.4842 -80.8958 260° West 240 276 28,000  Level Indianapolis Center
05:17PM 38.4722 -80.9794 260° West 239 275 28,000  Level Indianapolis Center
05:18PM 38.4597 -81.0619 259° West 239 275 28,000  Level Indianapolis Center
05:19PM 38.4475 -81.1464 260° West 239 275 28,000  Level Indianapolis Center
05:20PM 38.4342 -81.2297 258° West 239 275 28,000  Level Indianapolis Center
05:21PM 38.4206 -81.3125 258° West 239 275 28,000  Level Indianapolis Center
05:22PM 38.4047 -81.4133 259° West 239 275 28,000  Level Indianapolis Center
05:23PM 38.3897 -81.4969 257° West 239 275 28,000  Level Indianapolis Center
05:24PM 38.3800 -81.5819 262° West 240 276 28,000  Level Indianapolis Center
05:25PM 38.3678 -81.6653 259° West 239 275 28,000  Level Indianapolis Center
05:26PM 38.3528 -81.7497 257° West 240 276 28,000  Level Indianapolis Center
05:27PM 38.3433 -81.8333 262° West 240 276 28,000  Level Indianapolis Center
05:28PM 38.3428 -81.9164 270° West 237 273 28,000  Level Indianapolis Center
05:29PM 38.3400 -82.0164 268° West 236 272 28,000  Level Indianapolis Center
05:30PM 38.3358 -82.1008 266° West 236 272 28,100  Climbing Indianapolis Center
05:31PM 38.3336 -82.1833 268° West 236 272 28,000 -360 Descending Indianapolis Center
05:32PM 38.3306 -82.2703 267° West 241 277 27,400 -660 Descending Indianapolis Center
05:34PM 38.3286 -82.3625 268° West 255 293 26,700 -720 Descending Indianapolis Center
05:35PM 38.3286 -82.4550 270° West 256 295 26,000 -780 Descending Indianapolis Center
05:36PM 38.3250 -82.5544 267° West 268 308 25,200 -900 Descending Indianapolis Center
05:37PM 38.3203 -82.6656 267° West 271 312 24,200 -900 Descending Indianapolis Center
05:38PM 38.3114 -82.7617 263° West 271 312 23,400 -840 Descending Indianapolis Center
05:39PM 38.3125 -82.8581 271° West 271 312 22,500 -900 Descending Indianapolis Center
05:40PM 38.3136 -82.9553 271° West 272 313 21,600 -840 Descending Indianapolis Center
05:41PM 38.3075 -83.0514 265° West 272 313 20,800 -900 Descending Indianapolis Center
05:42PM 38.3033 -83.1636 267° West 272 313 19,800 -900 Descending Indianapolis Center
05:43PM 38.2972 -83.2583 265° West 272 313 19,000 -840 Descending Indianapolis Center
05:44PM 38.2919 -83.3567 266° West 272 313 18,100 -1,080 Descending Indianapolis Center
05:45PM 38.2867 -83.4503 266° West 272 313 16,800 -1,260 Descending Indianapolis Center
05:46PM 38.2808 -83.5481 266° West 272 313 15,600 -1,380 Descending Indianapolis Center
05:47PM 38.2744 -83.6603 266° West 272 313 14,000 -1,500 Descending Indianapolis Center
05:48PM 38.2703 -83.7569 267° West 272 313 12,500 -1,440 Descending Indianapolis Center
05:49PM 38.2658 -83.8542 267° West 273 314 11,100 -900 Descending Indianapolis Center
05:50PM 38.2603 -83.9439 266° West 265 305 10,700 -840 Descending Indianapolis Center
05:51PM 38.2633 -84.0306 273° West 253 291 9,400 -1,560 Descending Indianapolis Center
05:52PM 38.2553 -84.1294 264° West 241 277 7,500 -1,800 Descending Indianapolis Center
05:53PM 38.2494 -84.2128 265° West 241 277 5,700 -1,620 Descending Indianapolis Center
05:54PM 38.2533 -84.2947 273° West 237 273 4,200 -1,440 Descending Indianapolis Center
05:55PM 38.2592 -84.3647 276° West 218 251 2,800 -780 Descending Indianapolis Center
05:56PM 38.2631 -84.4306 274° West 214 246 2,600 -240 Descending Indianapolis Center
05:58PM 38.2333 -84.4333 270° West  Level FlightAware Approximate
06:05PM 38.2344 -84.4347 270° West  Level Estimated
06:06PM 38.2333 -84.4333 270° West  Level FlightAware Approximate